sensor_id;sensor_type;location;lat;lon;timestamp;temperature;humidity
19880;DHT22;10102;50.828;4.416;2023-02-21T00:02:11;9.30;99.90
19880;DHT22;10102;50.828;4.416;2023-02-21T00:04:55;9.40;99.90
19880;DHT22;10102;50.828;4.416;2023-02-21T00:15:53;9.30;99.90
19880;DHT22;10102;50.828;4.416;2023-02-21T00:18:38;9.30;99.90
19880;DHT22;10102;50.828;4.416;2023-02-21T00:21:23;9.70;99.90
19880;DHT22;10102;50.828;4.416;2023-02-21T00:24:11;9.20;99.90
19880;DHT22;10102;50.828;4.416;2023-02-21T00:26:55;9.60;99.90
19880;DHT22;10102;50.828;4.416;2023-02-21T00:32:24;9.70;99.90
19880;DHT22;10102;50.828;4.416;2023-02-21T00:35:08;9.30;99.90
19880;DHT22;10102;50.828;4.416;2023-02-21T00:37:52;9.20;99.90
19880;DHT22;10102;50.828;4.416;2023-02-21T00:40:37;9.20;99.90
19880;DHT22;10102;50.828;4.416;2023-02-21T00:43:32;9.30;99.90
19880;DHT22;10102;50.828;4.416;2023-02-21T00:46:17;9.40;99.90
19880;DHT22;10102;50.828;4.416;2023-02-21T00:49:02;9.10;99.90
19880;DHT22;10102;50.828;4.416;2023-02-21T00:51:47;9.20;99.90
19880;DHT22;10102;50.828;4.416;2023-02-21T00:54:31;9.20;99.90
19880;DHT22;10102;50.828;4.416;2023-02-21T00:57:15;9.10;99.90
19880;DHT22;10102;50.828;4.416;2023-02-21T00:59:59;9.20;99.90
19880;DHT22;10102;50.828;4.416;2023-02-21T01:02:43;9.10;99.90
19880;DHT22;10102;50.828;4.416;2023-02-21T01:05:27;9.90;99.90
19880;DHT22;10102;50.828;4.416;2023-02-21T01:08:11;8.80;99.90
19880;DHT22;10102;50.828;4.416;2023-02-21T01:10:56;9.00;99.90
19880;DHT22;10102;50.828;4.416;2023-02-21T01:13:40;9.00;99.90
19880;DHT22;10102;50.828;4.416;2023-02-21T01:16:30;9.00;99.90
19880;DHT22;10102;50.828;4.416;2023-02-21T01:19:15;8.90;99.90
19880;DHT22;10102;50.828;4.416;2023-02-21T01:21:59;8.90;99.90
19880;DHT22;10102;50.828;4.416;2023-02-21T01:24:44;9.00;99.90
19880;DHT22;10102;50.828;4.416;2023-02-21T01:27:28;9.00;99.90
19880;DHT22;10102;50.828;4.416;2023-02-21T01:30:12;9.60;99.90
19880;DHT22;10102;50.828;4.416;2023-02-21T01:32:56;8.90;99.90
19880;DHT22;10102;50.828;4.416;2023-02-21T01:35:40;9.00;99.90
19880;DHT22;10102;50.828;4.416;2023-02-21T01:38:25;9.00;99.90
19880;DHT22;10102;50.828;4.416;2023-02-21T01:41:09;8.90;99.90
19880;DHT22;10102;50.828;4.416;2023-02-21T01:47:13;8.70;99.90
19880;DHT22;10102;50.828;4.416;2023-02-21T01:49:58;8.80;99.90
19880;DHT22;10102;50.828;4.416;2023-02-21T01:52:45;8.90;99.90
19880;DHT22;10102;50.828;4.416;2023-02-21T01:55:31;9.00;99.90
19880;DHT22;10102;50.828;4.416;2023-02-21T01:58:17;9.00;99.90
19880;DHT22;10102;50.828;4.416;2023-02-21T02:01:04;8.60;99.90
19880;DHT22;10102;50.828;4.416;2023-02-21T02:03:48;8.60;99.90
19880;DHT22;10102;50.828;4.416;2023-02-21T02:06:33;9.40;99.90
19880;DHT22;10102;50.828;4.416;2023-02-21T02:09:19;8.50;99.90
19880;DHT22;10102;50.828;4.416;2023-02-21T02:12:10;8.50;99.90
19880;DHT22;10102;50.828;4.416;2023-02-21T02:18:30;8.80;99.90
19880;DHT22;10102;50.828;4.416;2023-02-21T02:35:23;8.80;99.90
19880;DHT22;10102;50.828;4.416;2023-02-21T02:38:48;8.60;99.90
19880;DHT22;10102;50.828;4.416;2023-02-21T02:44:03;8.70;99.90
19880;DHT22;10102;50.828;4.416;2023-02-21T02:46:33;8.50;99.90
19880;DHT22;10102;50.828;4.416;2023-02-21T02:51:33;8.70;99.90
19880;DHT22;10102;50.828;4.416;2023-02-21T02:53:59;8.80;99.90
19880;DHT22;10102;50.828;4.416;2023-02-21T02:56:25;8.80;99.90
19880;DHT22;10102;50.828;4.416;2023-02-21T02:58:54;8.90;99.90
19880;DHT22;10102;50.828;4.416;2023-02-21T03:01:44;9.00;99.90
19880;DHT22;10102;50.828;4.416;2023-02-21T03:07:24;8.70;99.90
19880;DHT22;10102;50.828;4.416;2023-02-21T03:18:03;8.90;99.90
19880;DHT22;10102;50.828;4.416;2023-02-21T03:20:32;8.90;99.90
19880;DHT22;10102;50.828;4.416;2023-02-21T03:22:58;9.00;99.90
19880;DHT22;10102;50.828;4.416;2023-02-21T03:25:28;9.00;99.90
19880;DHT22;10102;50.828;4.416;2023-02-21T03:27:56;9.10;99.90
19880;DHT22;10102;50.828;4.416;2023-02-21T03:30:22;9.20;99.90
19880;DHT22;10102;50.828;4.416;2023-02-21T03:32:51;9.20;99.90
19880;DHT22;10102;50.828;4.416;2023-02-21T03:35:18;9.20;99.90
19880;DHT22;10102;50.828;4.416;2023-02-21T03:37:49;9.10;99.90
19880;DHT22;10102;50.828;4.416;2023-02-21T03:40:18;8.90;99.90
19880;DHT22;10102;50.828;4.416;2023-02-21T03:42:44;8.70;99.90
19880;DHT22;10102;50.828;4.416;2023-02-21T03:45:10;8.80;99.90
19880;DHT22;10102;50.828;4.416;2023-02-21T03:47:36;8.80;99.90
19880;DHT22;10102;50.828;4.416;2023-02-21T03:50:01;8.60;99.90
19880;DHT22;10102;50.828;4.416;2023-02-21T03:52:29;8.70;99.90
19880;DHT22;10102;50.828;4.416;2023-02-21T03:54:55;8.70;99.90
19880;DHT22;10102;50.828;4.416;2023-02-21T03:57:21;8.80;99.90
19880;DHT22;10102;50.828;4.416;2023-02-21T03:59:46;8.90;99.90
19880;DHT22;10102;50.828;4.416;2023-02-21T04:02:12;8.90;99.90
19880;DHT22;10102;50.828;4.416;2023-02-21T04:04:38;8.70;99.90
19880;DHT22;10102;50.828;4.416;2023-02-21T04:07:04;8.70;99.90
19880;DHT22;10102;50.828;4.416;2023-02-21T04:09:30;9.00;99.90
19880;DHT22;10102;50.828;4.416;2023-02-21T04:11:55;9.10;99.90
19880;DHT22;10102;50.828;4.416;2023-02-21T04:14:21;9.00;99.90
19880;DHT22;10102;50.828;4.416;2023-02-21T04:16:47;8.90;99.90
19880;DHT22;10102;50.828;4.416;2023-02-21T04:19:13;9.00;99.90
19880;DHT22;10102;50.828;4.416;2023-02-21T04:21:38;9.00;99.90
19880;DHT22;10102;50.828;4.416;2023-02-21T04:24:04;10.60;99.90
19880;DHT22;10102;50.828;4.416;2023-02-21T04:26:31;9.00;99.90
19880;DHT22;10102;50.828;4.416;2023-02-21T04:28:56;9.00;99.90
19880;DHT22;10102;50.828;4.416;2023-02-21T04:31:22;8.90;99.90
19880;DHT22;10102;50.828;4.416;2023-02-21T04:33:48;9.00;99.90
19880;DHT22;10102;50.828;4.416;2023-02-21T04:36:14;8.90;99.90
19880;DHT22;10102;50.828;4.416;2023-02-21T04:38:40;9.00;99.90
19880;DHT22;10102;50.828;4.416;2023-02-21T04:41:06;8.90;99.90
19880;DHT22;10102;50.828;4.416;2023-02-21T04:43:32;8.90;99.90
19880;DHT22;10102;50.828;4.416;2023-02-21T04:45:57;9.00;99.90
19880;DHT22;10102;50.828;4.416;2023-02-21T04:48:24;8.90;99.90
19880;DHT22;10102;50.828;4.416;2023-02-21T04:53:15;9.10;99.90
19880;DHT22;10102;50.828;4.416;2023-02-21T04:58:07;9.00;99.90
19880;DHT22;10102;50.828;4.416;2023-02-21T05:00:33;8.70;99.90
19880;DHT22;10102;50.828;4.416;2023-02-21T05:02:58;8.60;99.90
19880;DHT22;10102;50.828;4.416;2023-02-21T05:05:25;8.70;99.90
19880;DHT22;10102;50.828;4.416;2023-02-21T05:07:51;8.60;99.90
19880;DHT22;10102;50.828;4.416;2023-02-21T05:10:17;8.60;99.90
19880;DHT22;10102;50.828;4.416;2023-02-21T05:12:43;8.70;99.90
19880;DHT22;10102;50.828;4.416;2023-02-21T05:15:11;8.70;99.90
19880;DHT22;10102;50.828;4.416;2023-02-21T05:17:36;8.80;99.90
19880;DHT22;10102;50.828;4.416;2023-02-21T05:20:03;8.70;99.90
19880;DHT22;10102;50.828;4.416;2023-02-21T05:22:37;8.70;99.90
19880;DHT22;10102;50.828;4.416;2023-02-21T05:25:06;9.30;99.90
19880;DHT22;10102;50.828;4.416;2023-02-21T05:27:33;8.80;99.90
19880;DHT22;10102;50.828;4.416;2023-02-21T05:29:58;8.80;99.90
19880;DHT22;10102;50.828;4.416;2023-02-21T05:32:24;8.60;99.90
19880;DHT22;10102;50.828;4.416;2023-02-21T05:34:54;8.60;99.90
19880;DHT22;10102;50.828;4.416;2023-02-21T05:37:19;8.70;99.90
19880;DHT22;10102;50.828;4.416;2023-02-21T05:39:46;8.60;99.90
19880;DHT22;10102;50.828;4.416;2023-02-21T05:42:12;8.70;99.90
19880;DHT22;10102;50.828;4.416;2023-02-21T05:44:38;8.70;99.90
19880;DHT22;10102;50.828;4.416;2023-02-21T05:47:04;8.50;99.90
19880;DHT22;10102;50.828;4.416;2023-02-21T05:49:35;8.80;99.90
19880;DHT22;10102;50.828;4.416;2023-02-21T05:52:00;8.90;99.90
19880;DHT22;10102;50.828;4.416;2023-02-21T05:54:26;8.80;99.90
19880;DHT22;10102;50.828;4.416;2023-02-21T05:56:52;8.80;99.90
19880;DHT22;10102;50.828;4.416;2023-02-21T05:59:19;8.70;99.90
19880;DHT22;10102;50.828;4.416;2023-02-21T06:01:46;8.70;99.90
19880;DHT22;10102;50.828;4.416;2023-02-21T06:04:12;8.70;99.90
19880;DHT22;10102;50.828;4.416;2023-02-21T06:06:38;8.70;99.90
19880;DHT22;10102;50.828;4.416;2023-02-21T06:09:04;8.70;99.90
19880;DHT22;10102;50.828;4.416;2023-02-21T06:11:32;8.70;99.90
19880;DHT22;10102;50.828;4.416;2023-02-21T06:14:00;8.70;99.90
19880;DHT22;10102;50.828;4.416;2023-02-21T06:16:35;8.70;99.90
19880;DHT22;10102;50.828;4.416;2023-02-21T06:19:02;8.40;99.90
19880;DHT22;10102;50.828;4.416;2023-02-21T06:21:28;8.40;99.90
19880;DHT22;10102;50.828;4.416;2023-02-21T06:23:55;8.40;99.90
19880;DHT22;10102;50.828;4.416;2023-02-21T06:26:21;8.50;99.90
19880;DHT22;10102;50.828;4.416;2023-02-21T06:28:47;8.80;99.90
19880;DHT22;10102;50.828;4.416;2023-02-21T06:31:15;8.50;99.90
19880;DHT22;10102;50.828;4.416;2023-02-21T06:33:41;8.60;99.90
19880;DHT22;10102;50.828;4.416;2023-02-21T06:36:11;8.70;99.90
19880;DHT22;10102;50.828;4.416;2023-02-21T06:38:37;8.60;99.90
19880;DHT22;10102;50.828;4.416;2023-02-21T06:43:34;8.40;99.90
19880;DHT22;10102;50.828;4.416;2023-02-21T06:46:04;8.40;99.90
19880;DHT22;10102;50.828;4.416;2023-02-21T06:48:30;8.30;99.90
19880;DHT22;10102;50.828;4.416;2023-02-21T06:50:56;8.30;99.90
19880;DHT22;10102;50.828;4.416;2023-02-21T06:53:22;8.40;99.90
19880;DHT22;10102;50.828;4.416;2023-02-21T06:55:47;8.30;99.90
19880;DHT22;10102;50.828;4.416;2023-02-21T06:58:13;8.30;99.90
19880;DHT22;10102;50.828;4.416;2023-02-21T07:00:39;8.30;99.90
19880;DHT22;10102;50.828;4.416;2023-02-21T07:03:05;8.20;99.90
19880;DHT22;10102;50.828;4.416;2023-02-21T07:05:30;8.30;99.90
19880;DHT22;10102;50.828;4.416;2023-02-21T07:08:00;7.90;99.90
19880;DHT22;10102;50.828;4.416;2023-02-21T07:10:26;8.50;99.90
19880;DHT22;10102;50.828;4.416;2023-02-21T07:12:52;8.60;99.90
19880;DHT22;10102;50.828;4.416;2023-02-21T07:15:18;8.60;99.90
19880;DHT22;10102;50.828;4.416;2023-02-21T07:17:43;8.50;99.90
19880;DHT22;10102;50.828;4.416;2023-02-21T07:20:09;8.30;99.90
19880;DHT22;10102;50.828;4.416;2023-02-21T07:22:35;8.60;99.90
19880;DHT22;10102;50.828;4.416;2023-02-21T07:25:01;8.60;99.90
19880;DHT22;10102;50.828;4.416;2023-02-21T07:27:27;8.60;99.90
19880;DHT22;10102;50.828;4.416;2023-02-21T07:29:52;8.90;99.90
19880;DHT22;10102;50.828;4.416;2023-02-21T07:32:18;8.40;99.90
19880;DHT22;10102;50.828;4.416;2023-02-21T07:34:45;8.60;99.90
19880;DHT22;10102;50.828;4.416;2023-02-21T07:37:11;8.60;99.90
19880;DHT22;10102;50.828;4.416;2023-02-21T07:42:03;8.60;99.90
19880;DHT22;10102;50.828;4.416;2023-02-21T07:44:29;8.60;99.90
19880;DHT22;10102;50.828;4.416;2023-02-21T07:46:56;8.70;99.90
19880;DHT22;10102;50.828;4.416;2023-02-21T07:49:22;8.80;99.90
19880;DHT22;10102;50.828;4.416;2023-02-21T07:51:48;8.80;99.90
19880;DHT22;10102;50.828;4.416;2023-02-21T07:54:16;8.80;99.90
19880;DHT22;10102;50.828;4.416;2023-02-21T07:56:48;8.80;99.90
19880;DHT22;10102;50.828;4.416;2023-02-21T07:59:14;8.80;99.90
19880;DHT22;10102;50.828;4.416;2023-02-21T08:01:40;8.90;99.90
19880;DHT22;10102;50.828;4.416;2023-02-21T08:04:06;8.90;99.90
19880;DHT22;10102;50.828;4.416;2023-02-21T08:06:35;9.00;99.90
19880;DHT22;10102;50.828;4.416;2023-02-21T08:09:00;9.00;99.90
19880;DHT22;10102;50.828;4.416;2023-02-21T08:11:26;9.10;99.90
19880;DHT22;10102;50.828;4.416;2023-02-21T08:13:52;8.80;99.90
19880;DHT22;10102;50.828;4.416;2023-02-21T08:16:18;9.10;99.90
19880;DHT22;10102;50.828;4.416;2023-02-21T08:18:46;9.10;99.90
19880;DHT22;10102;50.828;4.416;2023-02-21T08:21:12;9.20;99.90
19880;DHT22;10102;50.828;4.416;2023-02-21T08:23:38;9.30;99.90
19880;DHT22;10102;50.828;4.416;2023-02-21T08:26:05;9.20;99.90
19880;DHT22;10102;50.828;4.416;2023-02-21T08:28:31;9.40;99.90
19880;DHT22;10102;50.828;4.416;2023-02-21T08:30:57;9.20;99.90
19880;DHT22;10102;50.828;4.416;2023-02-21T08:33:22;9.00;99.90
19880;DHT22;10102;50.828;4.416;2023-02-21T08:35:49;9.10;99.90
19880;DHT22;10102;50.828;4.416;2023-02-21T08:38:14;9.00;99.90
19880;DHT22;10102;50.828;4.416;2023-02-21T08:40:42;8.90;99.90
19880;DHT22;10102;50.828;4.416;2023-02-21T08:43:07;9.10;99.90
19880;DHT22;10102;50.828;4.416;2023-02-21T08:45:33;9.10;99.90
19880;DHT22;10102;50.828;4.416;2023-02-21T08:47:59;9.20;99.90
19880;DHT22;10102;50.828;4.416;2023-02-21T08:50:27;9.00;99.90
19880;DHT22;10102;50.828;4.416;2023-02-21T08:52:53;9.20;99.90
19880;DHT22;10102;50.828;4.416;2023-02-21T08:55:20;9.00;99.90
19880;DHT22;10102;50.828;4.416;2023-02-21T08:57:50;9.30;99.90
19880;DHT22;10102;50.828;4.416;2023-02-21T09:00:18;9.50;99.90
19880;DHT22;10102;50.828;4.416;2023-02-21T09:02:44;9.30;99.90
19880;DHT22;10102;50.828;4.416;2023-02-21T09:05:15;8.90;99.90
19880;DHT22;10102;50.828;4.416;2023-02-21T09:07:43;9.30;99.90
19880;DHT22;10102;50.828;4.416;2023-02-21T09:10:12;9.00;99.90
19880;DHT22;10102;50.828;4.416;2023-02-21T09:12:37;9.30;99.90
19880;DHT22;10102;50.828;4.416;2023-02-21T09:15:04;9.70;99.90
19880;DHT22;10102;50.828;4.416;2023-02-21T09:17:30;9.40;99.90
19880;DHT22;10102;50.828;4.416;2023-02-21T09:20:04;9.40;99.90
19880;DHT22;10102;50.828;4.416;2023-02-21T09:22:31;9.50;99.90
19880;DHT22;10102;50.828;4.416;2023-02-21T09:24:57;9.70;99.90
19880;DHT22;10102;50.828;4.416;2023-02-21T09:27:23;9.80;99.90
19880;DHT22;10102;50.828;4.416;2023-02-21T09:30:06;9.80;99.90
19880;DHT22;10102;50.828;4.416;2023-02-21T09:32:32;9.90;99.90
19880;DHT22;10102;50.828;4.416;2023-02-21T09:34:58;9.90;99.90
19880;DHT22;10102;50.828;4.416;2023-02-21T09:37:24;9.70;99.90
19880;DHT22;10102;50.828;4.416;2023-02-21T09:39:50;9.60;99.90
19880;DHT22;10102;50.828;4.416;2023-02-21T09:42:17;9.60;99.90
19880;DHT22;10102;50.828;4.416;2023-02-21T09:44:44;9.70;99.90
19880;DHT22;10102;50.828;4.416;2023-02-21T09:47:24;9.40;99.90
19880;DHT22;10102;50.828;4.416;2023-02-21T09:50:03;9.60;99.90
19880;DHT22;10102;50.828;4.416;2023-02-21T09:52:37;9.50;99.90
19880;DHT22;10102;50.828;4.416;2023-02-21T09:55:28;9.60;99.90
19880;DHT22;10102;50.828;4.416;2023-02-21T09:57:55;9.80;99.90
19880;DHT22;10102;50.828;4.416;2023-02-21T10:00:27;9.80;99.90
19880;DHT22;10102;50.828;4.416;2023-02-21T10:05:41;9.80;99.90
19880;DHT22;10102;50.828;4.416;2023-02-21T10:10:56;9.80;99.90
19880;DHT22;10102;50.828;4.416;2023-02-21T10:16:02;9.70;99.90
19880;DHT22;10102;50.828;4.416;2023-02-21T10:21:33;9.40;99.90
19880;DHT22;10102;50.828;4.416;2023-02-21T10:24:02;9.30;99.90
19880;DHT22;10102;50.828;4.416;2023-02-21T10:26:36;9.40;99.90
19880;DHT22;10102;50.828;4.416;2023-02-21T10:29:26;9.40;99.90
19880;DHT22;10102;50.828;4.416;2023-02-21T10:32:00;9.40;99.90
19880;DHT22;10102;50.828;4.416;2023-02-21T10:34:30;9.40;99.90
19880;DHT22;10102;50.828;4.416;2023-02-21T10:37:01;9.50;99.90
19880;DHT22;10102;50.828;4.416;2023-02-21T10:39:38;9.60;99.90
19880;DHT22;10102;50.828;4.416;2023-02-21T10:42:12;9.60;99.90
19880;DHT22;10102;50.828;4.416;2023-02-21T10:44:39;9.70;99.90
19880;DHT22;10102;50.828;4.416;2023-02-21T10:47:17;9.80;99.90
19880;DHT22;10102;50.828;4.416;2023-02-21T10:50:03;9.90;99.90
19880;DHT22;10102;50.828;4.416;2023-02-21T10:52:36;9.80;99.90
19880;DHT22;10102;50.828;4.416;2023-02-21T10:55:18;9.90;99.90
19880;DHT22;10102;50.828;4.416;2023-02-21T10:57:46;10.00;99.90
19880;DHT22;10102;50.828;4.416;2023-02-21T11:02:56;10.10;99.90
19880;DHT22;10102;50.828;4.416;2023-02-21T11:05:27;10.10;99.90
19880;DHT22;10102;50.828;4.416;2023-02-21T11:08:03;10.50;99.90
19880;DHT22;10102;50.828;4.416;2023-02-21T11:10:32;10.20;99.90
19880;DHT22;10102;50.828;4.416;2023-02-21T11:13:09;10.30;99.90
19880;DHT22;10102;50.828;4.416;2023-02-21T11:18:24;9.40;99.90
19880;DHT22;10102;50.828;4.416;2023-02-21T11:20:51;9.50;99.90
19880;DHT22;10102;50.828;4.416;2023-02-21T11:23:29;9.60;99.90
19880;DHT22;10102;50.828;4.416;2023-02-21T11:26:06;9.60;99.90
19880;DHT22;10102;50.828;4.416;2023-02-21T11:28:38;10.20;99.90
19880;DHT22;10102;50.828;4.416;2023-02-21T11:31:27;10.50;99.90
19880;DHT22;10102;50.828;4.416;2023-02-21T11:34:02;10.80;99.90
19880;DHT22;10102;50.828;4.416;2023-02-21T11:36:31;10.70;99.90
19880;DHT22;10102;50.828;4.416;2023-02-21T11:44:36;10.50;99.90
19880;DHT22;10102;50.828;4.416;2023-02-21T11:55:19;10.20;99.90
19880;DHT22;10102;50.828;4.416;2023-02-21T12:00:35;10.30;99.90
19880;DHT22;10102;50.828;4.416;2023-02-21T12:03:22;10.40;99.90
19880;DHT22;10102;50.828;4.416;2023-02-21T12:13:43;10.90;99.90
19880;DHT22;10102;50.828;4.416;2023-02-21T12:26:49;11.00;99.90
19880;DHT22;10102;50.828;4.416;2023-02-21T12:29:41;10.90;99.90
19880;DHT22;10102;50.828;4.416;2023-02-21T12:46:42;11.00;99.90
19880;DHT22;10102;50.828;4.416;2023-02-21T12:51:54;10.70;99.90
19880;DHT22;10102;50.828;4.416;2023-02-21T12:54:31;11.00;99.90
19880;DHT22;10102;50.828;4.416;2023-02-21T12:57:06;11.00;99.90
19880;DHT22;10102;50.828;4.416;2023-02-21T13:00:03;11.00;99.90
19880;DHT22;10102;50.828;4.416;2023-02-21T13:02:52;11.30;99.90
19880;DHT22;10102;50.828;4.416;2023-02-21T13:05:32;11.30;99.90
19880;DHT22;10102;50.828;4.416;2023-02-21T13:08:55;11.30;99.90
19880;DHT22;10102;50.828;4.416;2023-02-21T13:13:48;11.30;99.90
19880;DHT22;10102;50.828;4.416;2023-02-21T13:16:14;11.40;99.90
19880;DHT22;10102;50.828;4.416;2023-02-21T13:18:59;10.30;99.90
19880;DHT22;10102;50.828;4.416;2023-02-21T13:29:51;11.70;99.90
19880;DHT22;10102;50.828;4.416;2023-02-21T13:32:23;11.90;99.90
19880;DHT22;10102;50.828;4.416;2023-02-21T13:34:58;11.60;99.90
19880;DHT22;10102;50.828;4.416;2023-02-21T13:37:26;11.60;99.90
19880;DHT22;10102;50.828;4.416;2023-02-21T13:39:56;11.70;99.90
19880;DHT22;10102;50.828;4.416;2023-02-21T13:42:28;11.80;99.90
19880;DHT22;10102;50.828;4.416;2023-02-21T13:53:08;11.10;99.90
19880;DHT22;10102;50.828;4.416;2023-02-21T13:55:38;11.30;99.90
19880;DHT22;10102;50.828;4.416;2023-02-21T14:10:48;11.20;99.90
19880;DHT22;10102;50.828;4.416;2023-02-21T14:15:56;11.10;99.90
19880;DHT22;10102;50.828;4.416;2023-02-21T14:18:56;11.40;99.90
19880;DHT22;10102;50.828;4.416;2023-02-21T14:21:33;11.40;99.90
19880;DHT22;10102;50.828;4.416;2023-02-21T14:24:24;11.50;99.90
19880;DHT22;10102;50.828;4.416;2023-02-21T14:29:33;11.60;99.90
19880;DHT22;10102;50.828;4.416;2023-02-21T14:37:23;11.80;99.90
19880;DHT22;10102;50.828;4.416;2023-02-21T14:42:58;12.00;99.90
19880;DHT22;10102;50.828;4.416;2023-02-21T14:48:56;11.30;99.90
19880;DHT22;10102;50.828;4.416;2023-02-21T14:59:26;11.80;99.90
19880;DHT22;10102;50.828;4.416;2023-02-21T15:05:17;11.80;99.90
19880;DHT22;10102;50.828;4.416;2023-02-21T15:12:54;11.70;99.90
19880;DHT22;10102;50.828;4.416;2023-02-21T15:18:07;11.30;99.90
19880;DHT22;10102;50.828;4.416;2023-02-21T15:20:36;11.10;99.90
19880;DHT22;10102;50.828;4.416;2023-02-21T15:23:21;11.30;99.90
19880;DHT22;10102;50.828;4.416;2023-02-21T15:25:56;11.20;99.90
19880;DHT22;10102;50.828;4.416;2023-02-21T15:28:24;10.70;99.90
19880;DHT22;10102;50.828;4.416;2023-02-21T15:31:03;10.60;99.90
19880;DHT22;10102;50.828;4.416;2023-02-21T15:33:34;10.90;99.90
19880;DHT22;10102;50.828;4.416;2023-02-21T15:36:06;11.00;99.90
19880;DHT22;10102;50.828;4.416;2023-02-21T15:38:42;11.00;99.90
19880;DHT22;10102;50.828;4.416;2023-02-21T15:44:18;10.80;99.90
19880;DHT22;10102;50.828;4.416;2023-02-21T15:46:51;10.50;99.90
19880;DHT22;10102;50.828;4.416;2023-02-21T15:49:34;10.90;99.90
19880;DHT22;10102;50.828;4.416;2023-02-21T15:52:02;11.10;99.90
19880;DHT22;10102;50.828;4.416;2023-02-21T15:54:36;11.20;99.90
19880;DHT22;10102;50.828;4.416;2023-02-21T15:59:37;11.10;99.90
19880;DHT22;10102;50.828;4.416;2023-02-21T16:02:15;11.70;99.90
19880;DHT22;10102;50.828;4.416;2023-02-21T16:04:43;11.40;99.90
19880;DHT22;10102;50.828;4.416;2023-02-21T16:07:35;11.40;99.90
19880;DHT22;10102;50.828;4.416;2023-02-21T16:10:07;11.40;99.90
19880;DHT22;10102;50.828;4.416;2023-02-21T16:12:43;11.40;99.90
19880;DHT22;10102;50.828;4.416;2023-02-21T16:15:22;11.20;99.90
19880;DHT22;10102;50.828;4.416;2023-02-21T16:18:18;11.20;99.90
19880;DHT22;10102;50.828;4.416;2023-02-21T16:20:44;11.10;99.90
19880;DHT22;10102;50.828;4.416;2023-02-21T16:25:59;11.10;99.90
19880;DHT22;10102;50.828;4.416;2023-02-21T16:28:26;10.80;99.90
19880;DHT22;10102;50.828;4.416;2023-02-21T16:30:52;10.80;99.90
19880;DHT22;10102;50.828;4.416;2023-02-21T16:33:20;11.10;99.90
19880;DHT22;10102;50.828;4.416;2023-02-21T16:35:46;11.10;99.90
19880;DHT22;10102;50.828;4.416;2023-02-21T16:38:17;11.10;99.90
19880;DHT22;10102;50.828;4.416;2023-02-21T16:40:44;11.30;99.90
19880;DHT22;10102;50.828;4.416;2023-02-21T16:43:16;10.80;99.90
19880;DHT22;10102;50.828;4.416;2023-02-21T16:45:42;10.80;99.90
19880;DHT22;10102;50.828;4.416;2023-02-21T16:48:15;10.90;99.90
19880;DHT22;10102;50.828;4.416;2023-02-21T16:50:42;10.90;99.90
19880;DHT22;10102;50.828;4.416;2023-02-21T16:53:11;10.90;99.90
19880;DHT22;10102;50.828;4.416;2023-02-21T16:55:37;10.90;99.90
19880;DHT22;10102;50.828;4.416;2023-02-21T16:58:06;10.90;99.90
19880;DHT22;10102;50.828;4.416;2023-02-21T17:00:32;10.80;99.90
19880;DHT22;10102;50.828;4.416;2023-02-21T17:02:58;10.50;99.90
19880;DHT22;10102;50.828;4.416;2023-02-21T17:05:24;10.50;99.90
19880;DHT22;10102;50.828;4.416;2023-02-21T17:07:52;10.50;99.90
19880;DHT22;10102;50.828;4.416;2023-02-21T17:10:18;10.30;99.90
19880;DHT22;10102;50.828;4.416;2023-02-21T17:12:44;10.30;99.90
19880;DHT22;10102;50.828;4.416;2023-02-21T17:15:10;10.30;99.90
19880;DHT22;10102;50.828;4.416;2023-02-21T17:17:37;10.20;99.90
19880;DHT22;10102;50.828;4.416;2023-02-21T17:20:03;10.10;99.90
19880;DHT22;10102;50.828;4.416;2023-02-21T17:22:29;10.00;99.90
19880;DHT22;10102;50.828;4.416;2023-02-21T17:24:55;10.00;99.90
19880;DHT22;10102;50.828;4.416;2023-02-21T17:27:21;9.90;99.90
19880;DHT22;10102;50.828;4.416;2023-02-21T17:29:48;9.90;99.90
19880;DHT22;10102;50.828;4.416;2023-02-21T17:32:14;9.70;99.90
19880;DHT22;10102;50.828;4.416;2023-02-21T17:34:41;9.70;99.90
19880;DHT22;10102;50.828;4.416;2023-02-21T17:39:34;9.50;99.90
19880;DHT22;10102;50.828;4.416;2023-02-21T17:42:00;9.60;99.90
19880;DHT22;10102;50.828;4.416;2023-02-21T17:44:26;9.50;99.90
19880;DHT22;10102;50.828;4.416;2023-02-21T17:46:54;9.40;99.90
19880;DHT22;10102;50.828;4.416;2023-02-21T17:49:23;9.30;99.90
19880;DHT22;10102;50.828;4.416;2023-02-21T17:51:49;9.30;99.90
19880;DHT22;10102;50.828;4.416;2023-02-21T17:54:16;9.00;99.90
19880;DHT22;10102;50.828;4.416;2023-02-21T17:56:42;9.00;99.90
19880;DHT22;10102;50.828;4.416;2023-02-21T18:01:34;9.20;99.90
19880;DHT22;10102;50.828;4.416;2023-02-21T18:04:00;8.90;99.90
19880;DHT22;10102;50.828;4.416;2023-02-21T18:06:26;9.00;99.90
19880;DHT22;10102;50.828;4.416;2023-02-21T18:11:20;8.60;99.90
19880;DHT22;10102;50.828;4.416;2023-02-21T18:13:46;8.40;99.90
19880;DHT22;10102;50.828;4.416;2023-02-21T18:16:12;8.60;99.90
19880;DHT22;10102;50.828;4.416;2023-02-21T18:21:05;8.40;99.90
19880;DHT22;10102;50.828;4.416;2023-02-21T18:23:32;8.40;99.90
19880;DHT22;10102;50.828;4.416;2023-02-21T18:25:58;8.40;99.90
19880;DHT22;10102;50.828;4.416;2023-02-21T18:28:25;8.50;99.90
19880;DHT22;10102;50.828;4.416;2023-02-21T18:30:51;8.50;99.90
19880;DHT22;10102;50.828;4.416;2023-02-21T18:33:19;8.60;99.90
19880;DHT22;10102;50.828;4.416;2023-02-21T18:35:45;8.70;99.90
19880;DHT22;10102;50.828;4.416;2023-02-21T18:38:11;8.60;99.90
19880;DHT22;10102;50.828;4.416;2023-02-21T18:40:37;8.70;99.90
19880;DHT22;10102;50.828;4.416;2023-02-21T18:43:16;8.60;99.90
19880;DHT22;10102;50.828;4.416;2023-02-21T18:45:42;8.50;99.90
19880;DHT22;10102;50.828;4.416;2023-02-21T18:48:08;8.50;99.90
19880;DHT22;10102;50.828;4.416;2023-02-21T18:50:33;8.40;99.90
19880;DHT22;10102;50.828;4.416;2023-02-21T18:53:01;8.40;99.90
19880;DHT22;10102;50.828;4.416;2023-02-21T18:55:28;8.30;99.90
19880;DHT22;10102;50.828;4.416;2023-02-21T18:57:54;8.60;99.90
19880;DHT22;10102;50.828;4.416;2023-02-21T19:00:21;8.50;99.90
19880;DHT22;10102;50.828;4.416;2023-02-21T19:02:47;8.00;99.90
19880;DHT22;10102;50.828;4.416;2023-02-21T19:05:18;8.30;99.90
19880;DHT22;10102;50.828;4.416;2023-02-21T19:07:44;8.30;99.90
19880;DHT22;10102;50.828;4.416;2023-02-21T19:10:12;8.20;99.90
19880;DHT22;10102;50.828;4.416;2023-02-21T19:12:38;8.20;99.90
19880;DHT22;10102;50.828;4.416;2023-02-21T19:15:04;8.20;99.90
19880;DHT22;10102;50.828;4.416;2023-02-21T19:17:30;8.00;99.90
19880;DHT22;10102;50.828;4.416;2023-02-21T19:19:56;7.90;99.90
19880;DHT22;10102;50.828;4.416;2023-02-21T19:22:22;7.80;99.90
19880;DHT22;10102;50.828;4.416;2023-02-21T19:24:47;8.20;99.90
19880;DHT22;10102;50.828;4.416;2023-02-21T19:27:13;8.00;99.90
19880;DHT22;10102;50.828;4.416;2023-02-21T19:29:39;7.90;99.90
19880;DHT22;10102;50.828;4.416;2023-02-21T19:32:06;8.00;99.90
19880;DHT22;10102;50.828;4.416;2023-02-21T19:34:33;8.00;99.90
19880;DHT22;10102;50.828;4.416;2023-02-21T19:36:59;7.70;99.90
19880;DHT22;10102;50.828;4.416;2023-02-21T19:39:24;7.40;99.90
19880;DHT22;10102;50.828;4.416;2023-02-21T19:41:50;7.30;99.90